createdAt,value
2023-07-07T00:02:24.080Z,24.35
2023-07-07T00:04:50.894Z,24.46
2023-07-07T00:07:17.579Z,24.40
2023-07-07T00:09:44.205Z,24.19
2023-07-07T00:12:10.799Z,24.29
2023-07-07T00:14:37.384Z,24.32
2023-07-07T00:17:04.615Z,24.43
2023-07-07T00:19:34.305Z,24.44
2023-07-07T00:22:07.505Z,24.28
2023-07-07T00:24:35.702Z,24.19
2023-07-07T00:27:02.808Z,24.41
2023-07-07T00:29:29.537Z,24.16
2023-07-07T00:31:56.082Z,24.28
2023-07-07T00:34:22.720Z,24.19
2023-07-07T00:36:49.454Z,24.08
2023-07-07T00:39:16.174Z,24.02
2023-07-07T00:41:42.811Z,23.82
2023-07-07T00:44:11.475Z,23.72
2023-07-07T00:46:39.737Z,23.70
2023-07-07T00:49:12.250Z,23.44
2023-07-07T00:51:43.437Z,23.46
2023-07-07T00:54:16.064Z,23.43
2023-07-07T00:56:50.866Z,23.40
2023-07-07T00:59:22.653Z,23.45
2023-07-07T01:02:01.551Z,23.29
2023-07-07T01:04:29.797Z,23.50
2023-07-07T01:07:06.891Z,23.49
2023-07-07T01:09:33.578Z,23.37
2023-07-07T01:12:00.453Z,23.49
2023-07-07T01:14:30.748Z,23.41
2023-07-07T01:17:06.493Z,23.32
2023-07-07T01:19:33.004Z,23.38
2023-07-07T01:22:14.295Z,23.36
2023-07-07T01:24:53.366Z,23.47
2023-07-07T01:27:33.503Z,23.43
2023-07-07T01:30:30.371Z,23.36
2023-07-07T01:32:57.850Z,23.32
2023-07-07T01:35:24.421Z,23.41
2023-07-07T01:37:55.849Z,23.73
2023-07-07T01:40:34.234Z,23.68
2023-07-07T01:43:07.108Z,23.41
2023-07-07T01:45:45.748Z,22.79
2023-07-07T01:48:12.252Z,22.77
2023-07-07T01:50:39.952Z,22.77
2023-07-07T01:53:11.136Z,22.68
2023-07-07T01:55:51.172Z,22.46
2023-07-07T01:58:20.065Z,22.56
2023-07-07T02:00:50.574Z,22.59
2023-07-07T02:03:17.574Z,22.64
2023-07-07T02:05:44.190Z,22.61
2023-07-07T02:08:11.087Z,22.56
2023-07-07T02:10:37.891Z,22.57
2023-07-07T02:13:04.598Z,22.56
2023-07-07T02:15:31.267Z,22.62
2023-07-07T02:17:58.679Z,22.61
2023-07-07T02:20:25.376Z,22.53
2023-07-07T02:22:52.147Z,22.49
2023-07-07T02:25:18.724Z,22.87
2023-07-07T02:27:45.313Z,22.77
2023-07-07T02:30:12.175Z,22.73
2023-07-07T02:32:38.761Z,22.51
2023-07-07T02:35:07.661Z,22.65
2023-07-07T02:37:35.334Z,22.56
2023-07-07T02:40:02.069Z,22.62
2023-07-07T02:42:28.637Z,22.62
2023-07-07T02:44:55.354Z,22.67
2023-07-07T02:47:22.039Z,22.85
2023-07-07T02:49:48.655Z,22.78
2023-07-07T02:52:15.377Z,22.87
2023-07-07T02:54:41.997Z,22.86
2023-07-07T02:57:08.704Z,22.99
2023-07-07T02:59:35.318Z,23.02
2023-07-07T03:02:02.029Z,22.88
2023-07-07T03:04:28.873Z,22.79
2023-07-07T03:06:55.634Z,22.64
2023-07-07T03:09:22.185Z,22.35
2023-07-07T03:11:48.895Z,22.61
2023-07-07T03:14:18.907Z,22.95
2023-07-07T03:16:48.550Z,22.68
2023-07-07T03:19:15.241Z,22.52
2023-07-07T03:21:41.922Z,22.50
2023-07-07T03:24:09.248Z,22.49
2023-07-07T03:26:36.241Z,22.30
2023-07-07T03:29:04.855Z,22.26
2023-07-07T03:31:33.810Z,22.22
2023-07-07T03:34:03.208Z,22.22
2023-07-07T03:36:31.940Z,22.17
2023-07-07T03:38:58.879Z,22.21
2023-07-07T03:41:28.810Z,22.32
2023-07-07T03:43:56.120Z,22.43
2023-07-07T03:46:25.311Z,22.49
2023-07-07T03:48:54.684Z,22.77
2023-07-07T03:51:23.825Z,22.67
2023-07-07T03:53:51.961Z,22.57
2023-07-07T03:56:19.623Z,22.61
2023-07-07T03:58:46.693Z,21.93
2023-07-07T04:01:15.237Z,22.08
2023-07-07T04:03:45.909Z,21.98
2023-07-07T04:06:14.250Z,22.05
2023-07-07T04:08:41.028Z,22.07
2023-07-07T04:11:19.360Z,22.00
2023-07-07T04:13:49.549Z,22.19
2023-07-07T04:16:19.830Z,22.08
2023-07-07T04:18:46.861Z,22.03
2023-07-07T04:21:17.211Z,22.20
2023-07-07T04:23:46.588Z,22.46
2023-07-07T04:26:13.574Z,22.29
2023-07-07T04:28:40.653Z,22.34
2023-07-07T04:31:10.756Z,22.37
2023-07-07T04:33:37.950Z,22.31
2023-07-07T04:36:07.355Z,22.45
2023-07-07T04:38:34.359Z,22.35
2023-07-07T04:41:14.302Z,22.57
2023-07-07T04:43:45.962Z,22.48
2023-07-07T04:46:18.162Z,22.67
2023-07-07T04:48:45.073Z,22.71
2023-07-07T04:51:13.194Z,22.61
2023-07-07T04:53:42.099Z,23.18
2023-07-07T04:56:16.819Z,23.15
2023-07-07T04:58:44.528Z,23.18
2023-07-07T05:01:17.081Z,23.08
2023-07-07T05:03:45.665Z,23.36
2023-07-07T05:06:13.463Z,23.31
2023-07-07T05:08:43.149Z,23.22
2023-07-07T05:11:18.575Z,23.00
2023-07-07T05:13:49.879Z,22.70
2023-07-07T05:16:21.280Z,22.80
2023-07-07T05:18:48.445Z,22.67
2023-07-07T05:21:17.514Z,22.63
2023-07-07T05:23:44.187Z,22.71
2023-07-07T05:26:11.399Z,22.71
2023-07-07T05:28:38.052Z,23.10
2023-07-07T05:31:08.129Z,23.26
2023-07-07T05:33:35.977Z,23.51
2023-07-07T05:36:04.976Z,23.64
2023-07-07T05:38:31.655Z,23.79
2023-07-07T05:40:59.160Z,24.01
2023-07-07T05:43:27.193Z,24.16
2023-07-07T05:45:59.251Z,24.43
2023-07-07T05:48:27.023Z,24.82
2023-07-07T05:50:57.286Z,25.09
2023-07-07T05:53:25.894Z,25.35
2023-07-07T05:55:52.865Z,25.34
2023-07-07T05:58:19.798Z,25.16
2023-07-07T06:00:46.470Z,25.32
2023-07-07T06:03:13.203Z,25.33
2023-07-07T06:05:39.744Z,25.67
2023-07-07T06:08:06.546Z,25.74
2023-07-07T06:10:34.223Z,25.71
2023-07-07T06:13:01.850Z,25.74
2023-07-07T06:15:28.506Z,25.81
2023-07-07T06:17:55.267Z,26.11
2023-07-07T06:20:21.959Z,26.24
2023-07-07T06:22:48.687Z,26.31
2023-07-07T06:25:16.034Z,26.35
2023-07-07T06:27:42.585Z,26.58
2023-07-07T06:30:09.277Z,26.87
2023-07-07T06:32:35.877Z,27.05
2023-07-07T06:35:02.442Z,26.84
2023-07-07T06:37:29.062Z,26.83
2023-07-07T06:39:55.613Z,26.88
2023-07-07T06:42:22.789Z,27.06
2023-07-07T06:44:49.678Z,26.99
2023-07-07T06:47:18.023Z,26.99
2023-07-07T06:49:45.264Z,27.01
2023-07-07T06:52:12.044Z,27.13
2023-07-07T06:54:38.698Z,27.09
2023-07-07T06:57:05.776Z,27.15
2023-07-07T06:59:32.456Z,27.10
2023-07-07T07:01:59.017Z,27.01
2023-07-07T07:04:25.568Z,26.95
2023-07-07T07:06:52.244Z,26.86
2023-07-07T07:09:18.807Z,27.00
2023-07-07T07:11:48.430Z,26.82
2023-07-07T07:14:15.570Z,26.85
2023-07-07T07:16:42.340Z,27.20
2023-07-07T07:19:09.024Z,27.50
2023-07-07T07:21:35.652Z,27.46
2023-07-07T07:24:02.254Z,27.46
2023-07-07T07:26:29.195Z,27.67
2023-07-07T07:28:55.837Z,27.25
2023-07-07T07:31:22.442Z,27.23
2023-07-07T07:33:52.898Z,27.44
2023-07-07T07:36:20.075Z,27.62
2023-07-07T07:38:46.794Z,27.85
2023-07-07T07:41:13.741Z,28.00
2023-07-07T07:43:40.520Z,27.94
2023-07-07T07:46:07.127Z,27.89
2023-07-07T07:48:33.783Z,27.95
2023-07-07T07:51:00.579Z,28.02
2023-07-07T07:53:27.454Z,28.01
2023-07-07T07:55:54.103Z,28.33
2023-07-07T07:58:20.668Z,28.46
2023-07-07T08:00:47.253Z,28.54
2023-07-07T08:03:14.375Z,28.64
2023-07-07T08:05:41.050Z,28.91
2023-07-07T08:08:08.916Z,28.99
2023-07-07T08:10:35.934Z,29.00
2023-07-07T08:13:02.712Z,29.36
2023-07-07T08:15:29.339Z,29.60
2023-07-07T08:17:56.061Z,29.44
2023-07-07T08:20:24.906Z,29.03
2023-07-07T08:22:51.476Z,29.07
2023-07-07T08:25:18.192Z,29.07
2023-07-07T08:28:06.971Z,29.10
2023-07-07T08:30:32.202Z,28.95
2023-07-07T08:32:58.857Z,29.11
2023-07-07T08:35:25.620Z,29.03
2023-07-07T08:37:52.274Z,28.95
2023-07-07T08:40:24.456Z,28.95
2023-07-07T08:42:51.829Z,29.05
2023-07-07T08:45:21.884Z,28.86
2023-07-07T08:48:27.408Z,29.10
2023-07-07T08:51:05.785Z,29.48
2023-07-07T08:53:44.415Z,29.82
2023-07-07T08:56:25.491Z,29.86
2023-07-07T08:59:05.195Z,29.85
2023-07-07T09:01:51.629Z,28.97
2023-07-07T09:04:34.258Z,28.94
2023-07-07T09:07:14.927Z,29.57
2023-07-07T09:10:02.669Z,29.86
2023-07-07T09:12:39.426Z,30.05
2023-07-07T09:15:19.873Z,30.16
2023-07-07T09:17:51.173Z,30.49
2023-07-07T09:20:22.229Z,30.51
2023-07-07T09:22:55.380Z,30.58
2023-07-07T09:25:49.515Z,30.58
2023-07-07T09:28:17.654Z,30.52
2023-07-07T09:30:51.930Z,30.41
2023-07-07T09:33:24.029Z,30.50
2023-07-07T09:36:16.437Z,30.72
2023-07-07T09:38:48.946Z,31.07
2023-07-07T09:42:17.011Z,31.04
2023-07-07T09:45:05.140Z,31.15
2023-07-07T09:47:34.750Z,31.30
2023-07-07T09:50:16.485Z,31.52
2023-07-07T09:52:53.406Z,31.48
2023-07-07T09:55:23.928Z,31.57
2023-07-07T09:58:02.325Z,31.66
2023-07-07T10:00:44.690Z,31.69
2023-07-07T10:03:41.543Z,31.60
2023-07-07T10:06:34.923Z,31.39
2023-07-07T10:09:02.288Z,31.63
2023-07-07T10:14:07.793Z,31.52
2023-07-07T10:16:34.680Z,31.77
2023-07-07T10:19:05.603Z,31.91
2023-07-07T10:21:32.194Z,32.20
2023-07-07T10:23:58.850Z,32.18
2023-07-07T10:26:25.790Z,32.21
2023-07-07T10:28:56.406Z,32.56
2023-07-07T10:31:25.773Z,32.71
2023-07-07T10:33:58.024Z,32.75
2023-07-07T10:36:31.932Z,33.15
2023-07-07T10:39:00.030Z,33.21
2023-07-07T10:41:28.661Z,33.19
2023-07-07T10:43:55.961Z,33.16
2023-07-07T10:46:22.872Z,32.82
2023-07-07T10:48:51.999Z,32.81
2023-07-07T10:51:40.839Z,32.91
2023-07-07T10:54:48.558Z,33.14
2023-07-07T10:57:38.143Z,32.87
2023-07-07T11:00:07.785Z,33.09
2023-07-07T11:03:12.873Z,33.19
2023-07-07T11:06:08.952Z,33.54
2023-07-07T11:08:43.458Z,33.39
2023-07-07T11:11:31.648Z,33.37
2023-07-07T11:14:15.978Z,33.64
2023-07-07T11:17:21.407Z,33.83
2023-07-07T11:19:59.957Z,34.31
2023-07-07T11:22:38.799Z,34.13
2023-07-07T11:25:22.302Z,33.97
2023-07-07T11:28:03.917Z,33.90
2023-07-07T11:30:52.197Z,33.87
2023-07-07T11:33:32.934Z,34.03
2023-07-07T11:36:23.140Z,34.08
2023-07-07T11:39:02.311Z,34.25
2023-07-07T11:42:06.774Z,34.44
2023-07-07T11:44:42.563Z,34.41
2023-07-07T11:47:15.845Z,34.50
2023-07-07T11:49:54.401Z,34.37
2023-07-07T11:52:30.634Z,34.31
2023-07-07T11:55:18.032Z,34.22
2023-07-07T11:57:55.329Z,34.15
2023-07-07T12:00:35.952Z,34.26
2023-07-07T12:03:24.145Z,34.34
2023-07-07T12:05:53.235Z,34.59
2023-07-07T12:08:32.338Z,34.75
2023-07-07T12:11:00.845Z,35.01
2023-07-07T12:13:38.677Z,34.75
2023-07-07T12:16:17.348Z,34.71
2023-07-07T12:18:47.516Z,35.17
2023-07-07T12:21:17.927Z,35.32
2023-07-07T12:24:13.893Z,35.44
2023-07-07T12:26:45.792Z,35.51
2023-07-07T12:29:16.270Z,35.61
2023-07-07T12:31:43.036Z,35.76
2023-07-07T12:34:37.902Z,35.70
2023-07-07T12:37:16.537Z,35.91
2023-07-07T12:39:55.885Z,36.01
2023-07-07T12:42:24.536Z,35.90
2023-07-07T12:44:51.610Z,35.66
2023-07-07T12:47:41.525Z,35.69
2023-07-07T12:50:26.503Z,35.42
2023-07-07T12:52:54.482Z,35.86
2023-07-07T12:55:29.474Z,35.89
2023-07-07T12:58:08.256Z,36.24
2023-07-07T13:00:40.160Z,36.15
